sensor_id;sensor_type;location;lat;lon;timestamp;P1;durP1;ratioP1;P2;durP2;ratioP2
43098;SDS011;28715;51.988;6.020;2022-10-16T00:26:52;10.90;;;3.95;;
43098;SDS011;28715;51.988;6.020;2022-10-16T00:39:12;10.07;;;4.57;;
43098;SDS011;28715;51.988;6.020;2022-10-16T00:41:41;9.02;;;4.40;;
43098;SDS011;28715;51.988;6.020;2022-10-16T00:44:58;9.38;;;4.88;;
43098;SDS011;28715;51.988;6.020;2022-10-16T00:47:53;11.25;;;4.72;;
43098;SDS011;28715;51.988;6.020;2022-10-16T02:09:02;10.13;;;5.00;;
43098;SDS011;28715;51.988;6.020;2022-10-16T05:15:41;7.32;;;3.65;;
43098;SDS011;28715;51.988;6.020;2022-10-16T06:50:39;6.45;;;3.13;;
43098;SDS011;28715;51.988;6.020;2022-10-16T07:20:50;6.60;;;3.60;;
43098;SDS011;28715;51.988;6.020;2022-10-16T07:23:15;7.03;;;3.60;;
43098;SDS011;28715;51.988;6.020;2022-10-16T07:33:34;8.43;;;4.15;;
43098;SDS011;28715;51.988;6.020;2022-10-16T07:55:15;7.72;;;2.40;;
43098;SDS011;28715;51.988;6.020;2022-10-16T08:08:16;8.97;;;2.90;;
43098;SDS011;28715;51.988;6.020;2022-10-16T08:13:58;5.20;;;2.07;;
43098;SDS011;28715;51.988;6.020;2022-10-16T08:16:36;6.57;;;2.00;;
43098;SDS011;28715;51.988;6.020;2022-10-16T08:19:35;5.30;;;2.10;;
43098;SDS011;28715;51.988;6.020;2022-10-16T08:23:26;6.30;;;1.90;;
43098;SDS011;28715;51.988;6.020;2022-10-16T08:56:54;6.07;;;2.10;;
43098;SDS011;28715;51.988;6.020;2022-10-16T09:10:47;7.73;;;1.90;;
43098;SDS011;28715;51.988;6.020;2022-10-16T09:35:09;4.80;;;1.50;;
43098;SDS011;28715;51.988;6.020;2022-10-16T09:46:21;4.57;;;1.30;;
43098;SDS011;28715;51.988;6.020;2022-10-16T10:02:41;6.50;;;1.30;;
43098;SDS011;28715;51.988;6.020;2022-10-16T10:18:39;6.70;;;1.67;;
43098;SDS011;28715;51.988;6.020;2022-10-16T10:21:28;8.93;;;1.67;;
43098;SDS011;28715;51.988;6.020;2022-10-16T10:24:24;8.90;;;1.83;;
43098;SDS011;28715;51.988;6.020;2022-10-16T10:36:56;7.47;;;1.73;;
43098;SDS011;28715;51.988;6.020;2022-10-16T10:43:09;7.37;;;1.67;;
43098;SDS011;28715;51.988;6.020;2022-10-16T10:46:14;6.83;;;1.77;;
43098;SDS011;28715;51.988;6.020;2022-10-16T11:06:48;7.73;;;1.63;;
43098;SDS011;28715;51.988;6.020;2022-10-16T11:12:17;8.10;;;1.60;;
43098;SDS011;28715;51.988;6.020;2022-10-16T11:14:58;9.07;;;1.60;;
43098;SDS011;28715;51.988;6.020;2022-10-16T11:21:10;8.00;;;1.60;;
43098;SDS011;28715;51.988;6.020;2022-10-16T11:42:33;8.20;;;1.73;;
43098;SDS011;28715;51.988;6.020;2022-10-16T11:45:24;7.10;;;1.50;;
43098;SDS011;28715;51.988;6.020;2022-10-16T11:48:14;8.67;;;1.50;;
43098;SDS011;28715;51.988;6.020;2022-10-16T11:51:06;10.53;;;1.40;;
43098;SDS011;28715;51.988;6.020;2022-10-16T11:54:00;7.53;;;1.30;;
43098;SDS011;28715;51.988;6.020;2022-10-16T11:56:33;9.83;;;1.40;;
43098;SDS011;28715;51.988;6.020;2022-10-16T11:59:08;9.97;;;2.13;;
43098;SDS011;28715;51.988;6.020;2022-10-16T12:01:53;8.77;;;1.33;;
43098;SDS011;28715;51.988;6.020;2022-10-16T12:04:43;8.70;;;1.40;;
43098;SDS011;28715;51.988;6.020;2022-10-16T12:07:19;8.77;;;1.57;;
43098;SDS011;28715;51.988;6.020;2022-10-16T12:09:55;6.53;;;1.20;;
43098;SDS011;28715;51.988;6.020;2022-10-16T12:17:48;6.30;;;1.63;;
43098;SDS011;28715;51.988;6.020;2022-10-16T12:20:25;7.80;;;1.53;;
43098;SDS011;28715;51.988;6.020;2022-10-16T12:23:16;9.27;;;1.23;;
43098;SDS011;28715;51.988;6.020;2022-10-16T12:25:53;7.20;;;1.40;;
43098;SDS011;28715;51.988;6.020;2022-10-16T12:28:29;10.97;;;1.67;;
43098;SDS011;28715;51.988;6.020;2022-10-16T12:31:30;7.93;;;1.63;;
43098;SDS011;28715;51.988;6.020;2022-10-16T12:34:14;8.17;;;1.50;;
43098;SDS011;28715;51.988;6.020;2022-10-16T12:37:07;8.63;;;1.50;;
43098;SDS011;28715;51.988;6.020;2022-10-16T12:39:49;8.77;;;1.60;;
43098;SDS011;28715;51.988;6.020;2022-10-16T12:42:20;8.97;;;1.80;;
43098;SDS011;28715;51.988;6.020;2022-10-16T12:44:55;8.13;;;1.63;;
43098;SDS011;28715;51.988;6.020;2022-10-16T12:47:47;7.77;;;1.33;;
43098;SDS011;28715;51.988;6.020;2022-10-16T12:53:00;9.80;;;1.83;;
43098;SDS011;28715;51.988;6.020;2022-10-16T12:58:54;11.10;;;1.70;;
43098;SDS011;28715;51.988;6.020;2022-10-16T13:01:53;7.77;;;1.40;;
43098;SDS011;28715;51.988;6.020;2022-10-16T13:07:32;7.73;;;1.40;;
43098;SDS011;28715;51.988;6.020;2022-10-16T13:10:31;7.73;;;1.50;;
43098;SDS011;28715;51.988;6.020;2022-10-16T13:17:12;8.25;;;1.52;;
43098;SDS011;28715;51.988;6.020;2022-10-16T13:33:46;10.07;;;1.87;;
43098;SDS011;28715;51.988;6.020;2022-10-16T13:37:15;7.10;;;1.70;;
43098;SDS011;28715;51.988;6.020;2022-10-16T13:46:35;10.43;;;1.87;;
43098;SDS011;28715;51.988;6.020;2022-10-16T13:50:13;7.93;;;1.50;;
43098;SDS011;28715;51.988;6.020;2022-10-16T14:05:52;8.68;;;1.63;;
43098;SDS011;28715;51.988;6.020;2022-10-16T14:12:25;8.10;;;1.37;;
43098;SDS011;28715;51.988;6.020;2022-10-16T14:15:25;9.07;;;1.80;;
43098;SDS011;28715;51.988;6.020;2022-10-16T17:30:24;16.13;;;5.22;;
43098;SDS011;28715;51.988;6.020;2022-10-16T17:37:13;16.65;;;8.43;;
43098;SDS011;28715;51.988;6.020;2022-10-16T18:13:30;12.90;;;5.20;;
43098;SDS011;28715;51.988;6.020;2022-10-16T18:20:31;12.98;;;4.95;;
43098;SDS011;28715;51.988;6.020;2022-10-16T18:29:57;13.05;;;6.13;;
43098;SDS011;28715;51.988;6.020;2022-10-16T18:32:24;17.95;;;7.68;;
43098;SDS011;28715;51.988;6.020;2022-10-16T18:34:53;17.52;;;7.75;;
43098;SDS011;28715;51.988;6.020;2022-10-16T18:37:25;18.02;;;8.70;;
43098;SDS011;28715;51.988;6.020;2022-10-16T18:39:51;19.35;;;8.77;;
43098;SDS011;28715;51.988;6.020;2022-10-16T18:42:18;16.80;;;8.52;;
43098;SDS011;28715;51.988;6.020;2022-10-16T18:44:44;16.67;;;8.00;;
43098;SDS011;28715;51.988;6.020;2022-10-16T18:47:10;14.70;;;7.20;;
43098;SDS011;28715;51.988;6.020;2022-10-16T18:49:35;14.50;;;7.10;;
43098;SDS011;28715;51.988;6.020;2022-10-16T18:52:01;13.90;;;7.13;;
43098;SDS011;28715;51.988;6.020;2022-10-16T18:54:27;11.00;;;6.83;;
43098;SDS011;28715;51.988;6.020;2022-10-16T18:56:53;16.80;;;6.30;;
43098;SDS011;28715;51.988;6.020;2022-10-16T18:59:21;18.70;;;11.87;;
43098;SDS011;28715;51.988;6.020;2022-10-16T19:01:58;18.80;;;8.23;;
43098;SDS011;28715;51.988;6.020;2022-10-16T19:04:28;14.55;;;7.05;;
43098;SDS011;28715;51.988;6.020;2022-10-16T19:07:02;15.18;;;7.40;;
43098;SDS011;28715;51.988;6.020;2022-10-16T19:09:31;13.27;;;7.22;;
43098;SDS011;28715;51.988;6.020;2022-10-16T19:12:02;14.30;;;7.07;;
43098;SDS011;28715;51.988;6.020;2022-10-16T19:14:27;14.45;;;6.93;;
43098;SDS011;28715;51.988;6.020;2022-10-16T19:16:54;16.95;;;7.47;;
43098;SDS011;28715;51.988;6.020;2022-10-16T19:19:19;14.53;;;6.57;;
43098;SDS011;28715;51.988;6.020;2022-10-16T19:21:48;14.23;;;6.63;;
43098;SDS011;28715;51.988;6.020;2022-10-16T19:24:19;14.77;;;6.45;;
43098;SDS011;28715;51.988;6.020;2022-10-16T19:26:46;16.63;;;6.43;;
43098;SDS011;28715;51.988;6.020;2022-10-16T19:29:12;15.63;;;6.28;;
43098;SDS011;28715;51.988;6.020;2022-10-16T19:31:38;16.97;;;6.60;;
43098;SDS011;28715;51.988;6.020;2022-10-16T19:34:04;13.15;;;6.55;;
43098;SDS011;28715;51.988;6.020;2022-10-16T19:36:32;13.23;;;5.50;;
43098;SDS011;28715;51.988;6.020;2022-10-16T19:39:00;13.43;;;5.97;;
43098;SDS011;28715;51.988;6.020;2022-10-16T19:41:39;13.70;;;6.07;;
43098;SDS011;28715;51.988;6.020;2022-10-16T19:44:10;15.82;;;6.35;;
43098;SDS011;28715;51.988;6.020;2022-10-16T19:46:37;15.10;;;6.85;;
43098;SDS011;28715;51.988;6.020;2022-10-16T19:49:06;19.17;;;7.80;;
43098;SDS011;28715;51.988;6.020;2022-10-16T19:51:49;15.52;;;7.40;;
43098;SDS011;28715;51.988;6.020;2022-10-16T19:54:16;17.70;;;9.13;;
43098;SDS011;28715;51.988;6.020;2022-10-16T19:56:46;17.02;;;8.63;;
43098;SDS011;28715;51.988;6.020;2022-10-16T19:59:12;13.63;;;7.37;;
43098;SDS011;28715;51.988;6.020;2022-10-16T20:01:49;18.77;;;10.70;;
43098;SDS011;28715;51.988;6.020;2022-10-16T20:04:17;16.10;;;8.77;;
43098;SDS011;28715;51.988;6.020;2022-10-16T20:06:46;17.98;;;10.73;;
43098;SDS011;28715;51.988;6.020;2022-10-16T20:09:14;21.30;;;11.55;;
43098;SDS011;28715;51.988;6.020;2022-10-16T20:11:42;20.80;;;12.95;;
43098;SDS011;28715;51.988;6.020;2022-10-16T20:14:41;18.63;;;11.47;;
43098;SDS011;28715;51.988;6.020;2022-10-16T20:16:59;17.27;;;10.70;;
43098;SDS011;28715;51.988;6.020;2022-10-16T20:19:30;16.38;;;10.10;;
43098;SDS011;28715;51.988;6.020;2022-10-16T20:21:56;16.90;;;9.60;;
43098;SDS011;28715;51.988;6.020;2022-10-16T20:28:01;17.05;;;9.80;;
43098;SDS011;28715;51.988;6.020;2022-10-16T20:34:00;15.13;;;8.93;;
43098;SDS011;28715;51.988;6.020;2022-10-16T20:47:26;17.48;;;10.40;;
43098;SDS011;28715;51.988;6.020;2022-10-16T20:57:43;20.58;;;12.50;;
43098;SDS011;28715;51.988;6.020;2022-10-16T21:08:30;20.13;;;11.68;;
43098;SDS011;28715;51.988;6.020;2022-10-16T21:10:59;18.42;;;11.20;;
43098;SDS011;28715;51.988;6.020;2022-10-16T21:13:28;20.03;;;13.67;;
43098;SDS011;28715;51.988;6.020;2022-10-16T21:15:56;23.65;;;18.45;;
43098;SDS011;28715;51.988;6.020;2022-10-16T21:18:30;40.88;;;34.60;;
43098;SDS011;28715;51.988;6.020;2022-10-16T21:27:02;43.63;;;29.77;;
43098;SDS011;28715;51.988;6.020;2022-10-16T21:29:36;30.90;;;21.42;;
43098;SDS011;28715;51.988;6.020;2022-10-16T21:32:07;34.80;;;22.45;;
43098;SDS011;28715;51.988;6.020;2022-10-16T21:34:33;37.85;;;24.75;;
43098;SDS011;28715;51.988;6.020;2022-10-16T21:37:04;45.78;;;27.33;;
43098;SDS011;28715;51.988;6.020;2022-10-16T21:39:30;27.85;;;17.92;;
43098;SDS011;28715;51.988;6.020;2022-10-16T21:41:56;32.13;;;20.67;;
43098;SDS011;28715;51.988;6.020;2022-10-16T21:44:21;72.73;;;44.13;;
43098;SDS011;28715;51.988;6.020;2022-10-16T21:46:47;61.20;;;39.53;;
43098;SDS011;28715;51.988;6.020;2022-10-16T21:49:16;31.27;;;21.27;;
43098;SDS011;28715;51.988;6.020;2022-10-16T21:51:44;23.25;;;17.88;;
43098;SDS011;28715;51.988;6.020;2022-10-16T21:54:13;26.35;;;16.58;;
43098;SDS011;28715;51.988;6.020;2022-10-16T21:56:40;21.33;;;13.80;;
43098;SDS011;28715;51.988;6.020;2022-10-16T21:59:06;16.47;;;12.00;;
43098;SDS011;28715;51.988;6.020;2022-10-16T22:01:32;19.70;;;12.60;;
43098;SDS011;28715;51.988;6.020;2022-10-16T22:03:58;17.57;;;11.93;;
43098;SDS011;28715;51.988;6.020;2022-10-16T22:06:24;24.40;;;13.10;;
43098;SDS011;28715;51.988;6.020;2022-10-16T22:08:51;33.05;;;21.00;;
43098;SDS011;28715;51.988;6.020;2022-10-16T22:11:21;47.53;;;30.88;;
43098;SDS011;28715;51.988;6.020;2022-10-16T22:13:48;122.88;;;85.97;;
43098;SDS011;28715;51.988;6.020;2022-10-16T22:16:18;147.27;;;104.75;;
43098;SDS011;28715;51.988;6.020;2022-10-16T22:18:45;170.73;;;127.90;;
43098;SDS011;28715;51.988;6.020;2022-10-16T22:21:10;160.50;;;122.07;;
43098;SDS011;28715;51.988;6.020;2022-10-16T22:23:36;148.23;;;117.87;;
43098;SDS011;28715;51.988;6.020;2022-10-16T22:26:02;82.03;;;63.27;;
43098;SDS011;28715;51.988;6.020;2022-10-16T22:28:30;42.13;;;33.35;;
43098;SDS011;28715;51.988;6.020;2022-10-16T22:30:59;24.33;;;18.35;;
43098;SDS011;28715;51.988;6.020;2022-10-16T22:35:52;21.67;;;15.77;;
43098;SDS011;28715;51.988;6.020;2022-10-16T22:38:18;26.27;;;16.80;;
43098;SDS011;28715;51.988;6.020;2022-10-16T22:40:43;22.50;;;15.00;;
43098;SDS011;28715;51.988;6.020;2022-10-16T22:43:09;22.40;;;16.33;;
43098;SDS011;28715;51.988;6.020;2022-10-16T22:45:35;22.00;;;15.23;;
43098;SDS011;28715;51.988;6.020;2022-10-16T22:48:01;23.07;;;16.63;;
43098;SDS011;28715;51.988;6.020;2022-10-16T22:50:28;26.40;;;17.55;;
43098;SDS011;28715;51.988;6.020;2022-10-16T22:52:53;23.57;;;16.27;;
43098;SDS011;28715;51.988;6.020;2022-10-16T22:55:20;27.63;;;16.35;;
43098;SDS011;28715;51.988;6.020;2022-10-16T22:57:46;20.83;;;15.97;;
43098;SDS011;28715;51.988;6.020;2022-10-16T23:00:12;24.93;;;15.83;;
43098;SDS011;28715;51.988;6.020;2022-10-16T23:02:43;23.77;;;16.08;;
43098;SDS011;28715;51.988;6.020;2022-10-16T23:05:09;22.05;;;15.88;;
43098;SDS011;28715;51.988;6.020;2022-10-16T23:07:35;26.33;;;16.37;;
43098;SDS011;28715;51.988;6.020;2022-10-16T23:10:02;25.55;;;17.48;;
43098;SDS011;28715;51.988;6.020;2022-10-16T23:12:29;29.02;;;18.08;;
43098;SDS011;28715;51.988;6.020;2022-10-16T23:14:54;26.70;;;17.87;;
43098;SDS011;28715;51.988;6.020;2022-10-16T23:17:20;28.13;;;18.97;;
43098;SDS011;28715;51.988;6.020;2022-10-16T23:19:46;27.33;;;19.73;;
43098;SDS011;28715;51.988;6.020;2022-10-16T23:22:12;28.60;;;18.73;;
43098;SDS011;28715;51.988;6.020;2022-10-16T23:24:38;23.90;;;17.48;;
43098;SDS011;28715;51.988;6.020;2022-10-16T23:27:03;25.47;;;17.93;;
43098;SDS011;28715;51.988;6.020;2022-10-16T23:29:29;28.63;;;17.77;;
43098;SDS011;28715;51.988;6.020;2022-10-16T23:31:55;24.43;;;17.87;;
43098;SDS011;28715;51.988;6.020;2022-10-16T23:34:22;28.48;;;18.30;;
43098;SDS011;28715;51.988;6.020;2022-10-16T23:36:48;23.80;;;18.40;;
43098;SDS011;28715;51.988;6.020;2022-10-16T23:39:14;24.63;;;18.47;;
43098;SDS011;28715;51.988;6.020;2022-10-16T23:41:39;24.40;;;17.63;;
43098;SDS011;28715;51.988;6.020;2022-10-16T23:44:07;27.00;;;16.90;;
43098;SDS011;28715;51.988;6.020;2022-10-16T23:46:33;27.27;;;17.33;;
43098;SDS011;28715;51.988;6.020;2022-10-16T23:48:58;27.83;;;18.07;;
43098;SDS011;28715;51.988;6.020;2022-10-16T23:51:24;27.90;;;18.00;;
43098;SDS011;28715;51.988;6.020;2022-10-16T23:53:50;29.07;;;18.67;;
43098;SDS011;28715;51.988;6.020;2022-10-16T23:56:16;24.33;;;18.70;;
43098;SDS011;28715;51.988;6.020;2022-10-16T23:58:44;27.00;;;20.05;;
